Time;durP1;ratioP1;P1;durP2;ratioP2;P2;SDS_P1;SDS_P2;PMS_P1;PMS_P2;Temp;Humidity;BMP_temperature;BMP_pressure;BME280_temperature;BME280_humidity;BME280_pressure;Samples;Min_cycle;Max_cycle;Signal;HPM_P1;HPM_P2
2023/05/09 00:02:15;;;;;;;11.70;6.90;;;;;;;20.98;20.45;101336.71;108213;1253;71499;-66
2023/05/09 00:04:42;;;;;;;13.20;6.70;;;;;;;21.11;20.39;101337.67;108164;1254;74231;-65
2023/05/09 00:07:10;;;;;;;15.40;7.00;;;;;;;21.29;20.16;101335.34;108158;1254;61550;-66
2023/05/09 00:09:36;;;;;;;14.80;7.10;;;;;;;21.33;20.19;101337.20;108155;1252;62543;-66
2023/05/09 00:12:04;;;;;;;15.60;7.30;;;;;;;21.44;20.11;101335.95;108170;1254;75964;-64
2023/05/09 00:14:32;;;;;;;16.80;8.00;;;;;;;21.60;20.05;101331.23;108221;1253;72507;-64
2023/05/09 00:16:59;;;;;;;16.90;7.00;;;;;;;21.15;20.38;101332.45;108143;1253;74403;-64
2023/05/09 00:19:26;;;;;;;17.00;7.20;;;;;;;21.08;20.43;101330.92;108143;1253;61531;-66
2023/05/09 00:21:53;;;;;;;19.40;7.60;;;;;;;20.83;20.58;101332.45;108156;1252;61556;-67
2023/05/09 00:27:11;;;;;;;16.20;8.20;;;;;;;17.66;23.95;101341.05;105851;1283;601461;-65
2023/05/09 00:29:38;;;;;;;14.90;7.70;;;;;;;19.68;21.86;101339.45;107296;1266;59319;-65
2023/05/09 00:32:05;;;;;;;18.50;7.40;;;;;;;20.01;21.70;101340.66;107334;1267;62310;-66
2023/05/09 00:34:32;;;;;;;14.40;7.40;;;;;;;19.96;21.79;101341.27;107282;1265;74287;-67
2023/05/09 00:36:59;;;;;;;16.30;8.00;;;;;;;19.83;21.71;101342.02;107358;1267;71334;-66
2023/05/09 00:39:26;;;;;;;17.40;8.30;;;;;;;19.77;21.97;101342.02;107345;1267;70809;-64
2023/05/09 00:41:54;;;;;;;13.30;7.60;;;;;;;19.78;21.90;101340.30;107260;1264;189135;-65
2023/05/09 00:44:21;;;;;;;10.80;6.30;;;;;;;19.76;21.84;101337.79;107496;1263;60887;-65
2023/05/09 00:46:48;;;;;;;18.20;8.10;;;;;;;19.71;21.95;101335.56;107392;1262;72853;-65
2023/05/09 00:49:15;;;;;;;12.20;7.10;;;;;;;19.64;22.07;101339.16;107308;1264;72620;-66
2023/05/09 00:51:42;;;;;;;17.00;7.80;;;;;;;19.78;22.01;101338.00;107379;1263;74471;-66
2023/05/09 00:54:08;;;;;;;17.10;8.50;;;;;;;19.92;21.86;101339.21;107385;1262;60658;-65
2023/05/09 00:56:35;;;;;;;18.20;8.10;;;;;;;19.90;21.78;101338.27;107363;1263;61916;-66
2023/05/09 00:59:02;;;;;;;19.80;7.90;;;;;;;20.31;21.44;101338.00;107261;1263;75423;-66
2023/05/09 01:01:29;;;;;;;21.00;8.70;;;;;;;20.37;21.37;101338.77;107967;1254;71396;-65
2023/05/09 01:03:56;;;;;;;18.60;7.50;;;;;;;20.63;21.21;101337.76;107957;1254;71052;-64
2023/05/09 01:06:31;;;;;;;17.60;8.10;;;;;;;20.71;21.10;101337.25;107934;1261;60383;-64
2023/05/09 01:09:02;;;;;;;14.20;8.00;;;;;;;20.82;20.98;101337.34;107822;1254;60288;-65
2023/05/09 01:11:38;;;;;;;13.60;7.90;;;;;;;20.85;21.04;101334.11;107918;1254;74451;-64
2023/05/09 01:14:24;;;;;;;14.60;7.40;;;;;;;20.67;21.21;101334.83;107891;1254;68512;-67
2023/05/09 01:17:07;;;;;;;17.00;8.40;;;;;;;21.01;20.82;101333.45;108263;1251;72119;-66
2023/05/09 01:19:57;;;;;;;15.70;7.40;;;;;;;21.06;20.82;101335.34;108136;1251;61528;-67
2023/05/09 01:22:34;;;;;;;21.60;8.80;;;;;;;21.03;20.82;101333.38;108281;1251;59506;-67
2023/05/09 01:25:39;;;;;;;13.20;7.90;;;;;;;21.20;20.72;101335.85;108213;1251;74999;-67
2023/05/09 01:28:07;;;;;;;13.80;6.70;;;;;;;21.48;20.61;101333.23;108215;1251;72762;-66
2023/05/09 01:30:35;;;;;;;19.30;8.50;;;;;;;21.44;20.71;101335.29;108137;1254;74281;-65
2023/05/09 01:33:02;;;;;;;17.60;7.70;;;;;;;21.23;20.64;101336.20;108191;1251;59738;-65
2023/05/09 01:35:29;;;;;;;16.70;7.70;;;;;;;21.03;20.79;101336.39;108211;1251;62286;-66
2023/05/09 01:37:56;;;;;;;16.50;7.90;;;;;;;21.36;20.68;101335.61;108000;1254;75267;-65
2023/05/09 01:40:23;;;;;;;17.60;8.20;;;;;;;21.57;20.36;101334.45;108078;1254;71679;-66
2023/05/09 01:42:59;;;;;;;14.90;8.00;;;;;;;21.59;20.64;101335.92;108027;1255;71858;-65
2023/05/09 01:45:25;;;;;;;13.20;8.20;;;;;;;21.33;20.65;101338.27;108109;1254;59426;-62
2023/05/09 01:47:52;;;;;;;13.90;7.80;;;;;;;21.34;20.58;101338.20;108123;1254;60644;-64
2023/05/09 01:50:19;;;;;;;16.50;7.50;;;;;;;21.39;20.66;101336.29;108091;1254;72597;-64
2023/05/09 01:52:48;;;;;;;20.90;8.30;;;;;;;21.32;20.63;101333.36;108160;1251;70778;-65
2023/05/09 01:55:15;;;;;;;19.40;8.40;;;;;;;21.28;20.82;101333.08;108264;1253;74902;-67
2023/05/09 01:57:43;;;;;;;18.50;8.40;;;;;;;21.24;20.83;101330.13;108080;1254;61212;-67
2023/05/09 02:00:12;;;;;;;14.70;7.60;;;;;;;21.28;20.70;101328.97;108041;1253;61472;-66
2023/05/09 02:02:39;;;;;;;16.00;7.50;;;;;;;21.37;20.77;101333.23;108342;1254;75252;-65
2023/05/09 02:05:08;;;;;;;12.00;6.80;;;;;;;21.21;20.72;101330.66;108097;1254;69741;-66
2023/05/09 02:07:35;;;;;;;17.30;8.00;;;;;;;21.11;20.90;101334.28;108070;1253;74641;-67
2023/05/09 02:10:02;;;;;;;18.50;7.80;;;;;;;20.99;21.09;101335.02;108118;1254;59488;-66
2023/05/09 02:12:29;;;;;;;16.50;7.10;;;;;;;21.11;20.95;101335.56;108088;1258;61290;-66
2023/05/09 02:14:56;;;;;;;15.80;7.30;;;;;;;20.58;21.37;101336.08;108091;1253;75004;-65
2023/05/09 02:17:23;;;;;;;13.70;7.30;;;;;;;20.60;21.31;101334.17;108142;1258;69605;-65
2023/05/09 02:19:50;;;;;;;12.20;7.40;;;;;;;20.63;21.38;101334.55;108110;1254;75418;-66
2023/05/09 02:22:16;;;;;;;14.40;8.00;;;;;;;20.78;21.39;101332.77;108150;1254;59266;-65
2023/05/09 02:24:44;;;;;;;14.90;7.50;;;;;;;20.67;21.36;101337.48;108052;1259;59534;-67
2023/05/09 02:27:11;;;;;;;16.30;7.60;;;;;;;20.76;21.42;101335.34;108158;1252;75421;-65
2023/05/09 02:29:41;;;;;;;13.50;7.20;;;;;;;20.90;21.32;101334.00;107763;1253;69651;-65
2023/05/09 02:32:15;;;;;;;15.10;7.30;;;;;;;21.30;21.02;101334.88;108216;1254;75066;-64
2023/05/09 02:34:42;;;;;;;16.20;7.70;;;;;;;21.15;21.16;101337.95;108187;1253;61676;-65
2023/05/09 02:37:09;;;;;;;12.00;7.00;;;;;;;21.40;21.09;101339.13;108038;1254;61529;-66
2023/05/09 02:39:36;;;;;;;12.70;6.70;;;;;;;21.30;21.05;101341.35;108195;1254;74879;-66
2023/05/09 02:42:10;;;;;;;12.00;7.20;;;;;;;21.21;21.28;101342.10;108094;1254;72670;-66
2023/05/09 02:44:37;;;;;;;13.50;8.10;;;;;;;21.00;21.35;101345.14;108180;1254;74026;-67
2023/05/09 02:47:05;;;;;;;14.40;7.40;;;;;;;21.01;21.55;101344.94;108175;1254;61587;-67
2023/05/09 02:49:32;;;;;;;14.20;8.00;;;;;;;20.95;21.41;101343.33;108207;1252;62103;-66
2023/05/09 02:52:00;;;;;;;14.30;6.60;;;;;;;20.87;21.52;101341.48;108181;1254;73984;-66
2023/05/09 02:54:27;;;;;;;15.40;7.50;;;;;;;21.47;21.29;101343.67;108066;1259;72408;-66
2023/05/09 02:56:54;;;;;;;12.30;7.20;;;;;;;21.57;21.00;101348.41;108111;1258;73220;-66
2023/05/09 02:59:21;;;;;;;14.70;8.00;;;;;;;21.53;20.97;101345.77;108173;1254;60116;-65
2023/05/09 03:01:48;;;;;;;16.80;7.80;;;;;;;21.22;21.36;101352.56;108253;1252;61349;-67
2023/05/09 03:04:16;;;;;;;15.60;7.60;;;;;;;21.66;21.02;101348.70;108051;1254;75032;-67
2023/05/09 03:06:43;;;;;;;14.20;7.50;;;;;;;21.69;21.10;101348.48;108025;1253;70789;-66
2023/05/09 03:09:11;;;;;;;18.10;7.80;;;;;;;21.60;21.03;101348.20;108095;1254;74822;-66
2023/05/09 03:11:38;;;;;;;19.10;7.90;;;;;;;21.75;21.02;101350.32;108166;1254;59548;-66
2023/05/09 03:14:07;;;;;;;14.80;8.00;;;;;;;21.88;20.94;101351.60;108100;1253;61869;-67
2023/05/09 03:16:34;;;;;;;16.90;7.90;;;;;;;22.06;20.82;101356.14;108101;1254;72228;-66
2023/05/09 03:19:02;;;;;;;12.20;6.40;;;;;;;21.86;20.92;101354.56;108090;1254;71770;-67
2023/05/09 03:21:30;;;;;;;16.80;7.90;;;;;;;21.53;21.03;101363.32;108022;1254;74339;-65
2023/05/09 03:23:58;;;;;;;15.40;7.70;;;;;;;21.66;20.89;101359.94;108170;1254;60181;-67
2023/05/09 03:26:25;;;;;;;15.20;7.40;;;;;;;21.50;21.18;101361.73;108151;1253;60797;-67
2023/05/09 03:28:52;;;;;;;17.90;7.30;;;;;;;21.45;21.20;101363.98;108255;1256;75003;-66
2023/05/09 03:31:19;;;;;;;25.80;8.80;;;;;;;21.67;21.13;101366.19;108159;1254;70925;-66
2023/05/09 03:33:46;;;;;;;18.40;8.60;;;;;;;21.74;20.92;101365.17;108183;1254;74927;-66
2023/05/09 03:36:13;;;;;;;14.30;7.60;;;;;;;21.71;20.96;101368.61;108092;1259;61851;-67
2023/05/09 03:38:41;;;;;;;30.00;8.50;;;;;;;21.73;21.04;101370.10;108146;1254;62423;-66
2023/05/09 03:41:08;;;;;;;16.40;8.60;;;;;;;21.54;21.07;101371.44;108148;1253;74979;-64
2023/05/09 03:43:35;;;;;;;21.50;8.50;;;;;;;21.42;21.31;101374.56;108145;1254;71709;-66
2023/05/09 03:46:02;;;;;;;19.00;9.20;;;;;;;21.31;21.37;101376.11;108017;1254;75151;-65
2023/05/09 03:48:30;;;;;;;19.10;9.30;;;;;;;21.47;21.38;101374.38;108052;1254;61175;-67
2023/05/09 03:50:57;;;;;;;18.00;8.20;;;;;;;21.71;20.98;101374.14;108034;1254;61653;-67
2023/05/09 03:53:25;;;;;;;15.80;8.00;;;;;;;21.78;20.96;101376.53;108128;1253;73506;-66
2023/05/09 03:55:53;;;;;;;14.80;8.10;;;;;;;21.89;20.90;101375.29;108078;1254;74367;-66
2023/05/09 03:58:20;;;;;;;17.80;8.60;;;;;;;22.56;20.27;101374.48;108091;1254;75049;-66
2023/05/09 04:00:46;;;;;;;13.70;7.90;;;;;;;22.77;20.08;101376.77;107959;1254;59746;-65
2023/05/09 04:03:17;;;;;;;12.40;7.60;;;;;;;23.19;19.88;101376.24;108014;1252;63207;-64
2023/05/09 04:05:45;;;;;;;13.60;7.30;;;;;;;23.58;19.68;101375.96;108006;1253;75296;-65
2023/05/09 04:08:19;;;;;;;14.40;7.60;;;;;;;23.79;19.21;101376.11;108140;1254;70457;-63
2023/05/09 04:10:48;;;;;;;16.50;7.30;;;;;;;23.67;19.40;101375.34;108134;1257;74410;-66
2023/05/09 04:13:15;;;;;;;13.90;7.60;;;;;;;23.63;19.56;101382.09;107886;1259;61437;-66
2023/05/09 04:15:42;;;;;;;13.80;6.80;;;;;;;23.25;19.83;101378.11;108045;1254;61105;-66
2023/05/09 04:18:09;;;;;;;12.10;6.90;;;;;;;23.05;19.99;101382.25;108020;1259;75156;-65
2023/05/09 04:20:36;;;;;;;15.30;7.60;;;;;;;23.40;19.60;101379.44;108083;1253;72690;-67
2023/05/09 04:23:03;;;;;;;13.00;7.20;;;;;;;23.43;19.51;101380.10;107991;1256;73050;-66
2023/05/09 04:25:30;;;;;;;12.40;6.20;;;;;;;23.46;19.56;101384.39;107997;1253;60524;-66
2023/05/09 04:27:57;;;;;;;12.20;6.60;;;;;;;23.74;19.43;101384.19;108108;1256;62259;-67
2023/05/09 04:30:25;;;;;;;18.90;6.60;;;;;;;23.97;19.17;101383.92;108001;1254;75363;-65
2023/05/09 04:32:54;;;;;;;15.50;6.80;;;;;;;23.71;19.48;101387.41;108111;1254;72717;-67
2023/05/09 04:35:21;;;;;;;11.80;5.60;;;;;;;23.43;19.59;101389.41;108050;1254;75060;-68
2023/05/09 04:37:49;;;;;;;9.90;5.80;;;;;;;23.79;19.35;101393.13;108087;1254;60512;-67
2023/05/09 04:40:16;;;;;;;9.70;6.20;;;;;;;23.67;19.32;101392.73;107958;1253;60750;-66
2023/05/09 04:42:48;;;;;;;16.10;6.40;;;;;;;23.94;19.28;101394.92;107999;1254;73799;-68
2023/05/09 04:45:16;;;;;;;11.50;5.80;;;;;;;23.83;19.45;101399.49;108054;1252;70390;-68
2023/05/09 04:47:43;;;;;;;10.00;5.60;;;;;;;23.99;19.12;101396.54;108006;1258;74748;-65
2023/05/09 04:50:10;;;;;;;8.60;5.20;;;;;;;24.04;19.07;101399.03;107946;1254;60542;-66
2023/05/09 04:52:37;;;;;;;11.70;4.80;;;;;;;24.20;18.99;101393.38;108078;1254;60244;-66
2023/05/09 04:55:05;;;;;;;8.60;5.00;;;;;;;24.42;18.90;101395.13;107939;1254;76158;-68
2023/05/09 04:57:35;;;;;;;14.10;5.50;;;;;;;24.77;18.53;101389.48;108187;1254;69814;-66
2023/05/09 05:00:05;;;;;;;11.80;5.00;;;;;;;24.69;18.38;101391.17;108123;1254;72583;-66
2023/05/09 05:02:32;;;;;;;14.30;5.40;;;;;;;24.78;18.49;101389.74;108054;1257;62769;-67
2023/05/09 05:05:00;;;;;;;13.20;5.80;;;;;;;24.72;18.56;101392.18;108081;1258;61263;-68
2023/05/09 05:07:38;;;;;;;17.20;5.90;;;;;;;24.77;18.54;101389.98;108098;1254;74064;-68
2023/05/09 05:10:05;;;;;;;14.40;5.50;;;;;;;25.19;18.22;101396.11;107937;1260;71368;-66
2023/05/09 05:12:33;;;;;;;16.50;5.20;;;;;;;25.21;18.00;101393.59;107934;1254;74565;-67
2023/05/09 05:15:00;;;;;;;16.00;5.30;;;;;;;24.85;18.32;101393.51;107926;1252;62103;-67
2023/05/09 05:17:28;;;;;;;12.50;5.00;;;;;;;24.58;18.64;101391.66;108013;1253;63073;-66
2023/05/09 05:19:56;;;;;;;10.80;5.40;;;;;;;24.57;18.04;101392.60;108029;1254;75097;-67
2023/05/09 05:22:23;;;;;;;22.80;5.80;;;;;;;24.83;18.16;101394.04;108121;1254;72681;-67
2023/05/09 05:24:50;;;;;;;11.60;4.60;;;;;;;24.81;18.22;101399.25;108105;1254;74816;-67
2023/05/09 05:27:17;;;;;;;21.90;5.50;;;;;;;25.37;17.97;101401.36;108081;1254;61235;-65
2023/05/09 05:29:44;;;;;;;17.60;5.20;;;;;;;25.16;17.95;101396.64;108186;1254;62564;-68
2023/05/09 05:32:11;;;;;;;21.40;5.10;;;;;;;25.48;17.60;101396.14;108050;1255;73427;-66
2023/05/09 05:34:38;;;;;;;13.80;5.10;;;;;;;25.69;17.62;101397.17;108029;1258;71093;-67
2023/05/09 05:37:05;;;;;;;17.50;4.60;;;;;;;25.95;17.23;101400.48;108136;1254;73453;-67
2023/05/09 05:39:32;;;;;;;7.00;4.30;;;;;;;26.00;17.22;101399.13;108016;1254;62395;-67
2023/05/09 05:41:59;;;;;;;7.70;4.60;;;;;;;25.82;17.29;101399.34;108133;1256;62310;-66
2023/05/09 05:44:27;;;;;;;10.00;4.30;;;;;;;26.02;17.42;101399.70;108108;1253;73738;-66
2023/05/09 05:46:54;;;;;;;6.80;4.10;;;;;;;26.17;17.34;101400.27;108046;1254;72036;-66
2023/05/09 05:49:23;;;;;;;6.30;3.80;;;;;;;25.88;17.40;101394.18;108107;1256;73545;-65
2023/05/09 05:51:50;;;;;;;10.70;3.70;;;;;;;26.05;17.23;101396.45;108078;1259;60938;-66
2023/05/09 05:54:18;;;;;;;10.50;3.80;;;;;;;26.22;16.98;101397.89;108081;1254;61528;-65
2023/05/09 05:56:45;;;;;;;6.10;3.80;;;;;;;26.09;17.03;101396.59;108137;1254;72957;-66
2023/05/09 05:59:12;;;;;;;10.30;3.60;;;;;;;26.76;16.81;101396.61;108067;1254;72841;-67
2023/05/09 06:01:39;;;;;;;9.70;3.60;;;;;;;27.04;16.69;101396.89;108172;1254;74939;-65
2023/05/09 06:04:06;;;;;;;6.60;3.50;;;;;;;27.22;16.43;101400.42;108080;1257;61751;-67
2023/05/09 06:06:33;;;;;;;16.10;3.80;;;;;;;27.55;16.07;101396.60;108136;1258;60300;-66
2023/05/09 06:09:00;;;;;;;8.20;3.30;;;;;;;27.86;16.09;101399.59;108190;1253;74652;-65
2023/05/09 06:11:27;;;;;;;8.90;3.40;;;;;;;28.11;15.88;101397.41;108088;1254;69398;-66
2023/05/09 06:13:54;;;;;;;6.40;3.20;;;;;;;28.44;15.58;101395.45;108097;1259;72302;-66
2023/05/09 06:16:21;;;;;;;11.80;3.30;;;;;;;28.70;15.19;101399.70;108064;1253;62694;-67
2023/05/09 06:18:49;;;;;;;18.70;3.80;;;;;;;29.00;14.80;101392.71;108159;1256;62354;-67
2023/05/09 06:21:15;;;;;;;8.30;3.40;;;;;;;29.08;14.90;101397.77;107844;1254;75544;-67
2023/05/09 06:23:42;;;;;;;10.40;3.20;;;;;;;29.36;14.78;101394.17;108080;1254;70452;-65
2023/05/09 06:26:29;;;;;;;7.80;3.10;;;;;;;29.40;14.45;101397.06;108021;1254;75008;-68
2023/05/09 06:28:56;;;;;;;7.40;2.70;;;;;;;29.67;14.36;101393.58;107977;1254;62479;-66
2023/05/09 06:31:23;;;;;;;7.50;3.10;;;;;;;29.72;14.18;101392.70;108063;1254;60286;-66
2023/05/09 06:33:51;;;;;;;5.30;2.60;;;;;;;29.65;14.21;101393.17;108056;1254;75142;-67
2023/05/09 06:36:19;;;;;;;6.00;2.70;;;;;;;29.66;14.43;101389.73;108231;1251;70672;-68
2023/05/09 06:38:46;;;;;;;11.30;3.20;;;;;;;30.46;13.81;101391.66;108104;1254;73043;-67
2023/05/09 06:41:13;;;;;;;7.20;2.60;;;;;;;30.97;13.41;101383.89;108013;1254;62425;-69
2023/05/09 06:43:39;;;;;;;7.50;3.00;;;;;;;31.50;13.50;101385.95;107991;1260;60755;-68
2023/05/09 06:46:06;;;;;;;15.60;2.70;;;;;;;32.04;12.65;101383.50;108067;1255;75979;-67
2023/05/09 06:48:33;;;;;;;6.30;2.60;;;;;;;31.94;12.38;101387.48;108134;1254;71498;-68
2023/05/09 06:51:00;;;;;;;6.60;2.60;;;;;;;31.27;12.43;101385.29;108114;1259;74909;-68
2023/05/09 06:53:27;;;;;;;5.20;2.20;;;;;;;31.14;12.60;101380.88;108114;1258;60466;-67
2023/05/09 06:55:53;;;;;;;5.40;2.30;;;;;;;31.13;12.44;101382.83;107947;1253;61378;-67
2023/05/09 06:58:20;;;;;;;3.70;2.30;;;;;;;31.16;12.26;101379.41;108128;1255;73880;-68
2023/05/09 07:00:47;;;;;;;8.30;2.20;;;;;;;31.15;12.31;101374.25;108025;1257;72561;-67
2023/05/09 07:03:14;;;;;;;6.10;2.20;;;;;;;31.29;12.46;101377.83;108015;1254;72947;-67
2023/05/09 07:05:41;;;;;;;15.10;4.70;;;;;;;31.15;12.14;101379.51;108004;1254;60331;-68
2023/05/09 07:08:08;;;;;;;24.20;4.30;;;;;;;31.04;11.94;101378.45;107993;1254;60785;-68
2023/05/09 07:10:35;;;;;;;8.60;2.90;;;;;;;31.03;11.70;101374.41;107935;1254;76187;-68
2023/05/09 07:13:01;;;;;;;19.10;5.30;;;;;;;31.02;11.53;101373.75;108039;1257;72170;-66
2023/05/09 07:15:28;;;;;;;12.20;3.70;;;;;;;30.94;11.42;101367.85;108055;1257;74503;-68
2023/05/09 07:18:08;;;;;;;12.00;4.30;;;;;;;30.24;11.86;101372.88;108059;1255;62352;-69
2023/05/09 07:20:35;;;;;;;7.60;3.20;;;;;;;30.32;11.77;101366.86;107983;1254;62524;-68
2023/05/09 07:23:02;;;;;;;6.10;2.20;;;;;;;30.43;11.81;101367.52;108070;1259;75753;-68
2023/05/09 07:25:29;;;;;;;13.30;2.30;;;;;;;30.49;11.39;101363.27;108127;1254;70891;-68
2023/05/09 07:27:56;;;;;;;3.90;1.90;;;;;;;30.30;11.76;101357.83;108072;1254;72786;-68
2023/05/09 07:30:24;;;;;;;6.90;2.20;;;;;;;30.24;11.83;101361.17;108126;1254;62304;-67
2023/05/09 07:32:51;;;;;;;3.60;2.20;;;;;;;30.46;11.33;101353.23;108068;1254;61224;-67
2023/05/09 07:35:18;;;;;;;4.10;2.00;;;;;;;30.99;11.06;101352.31;108075;1253;75284;-67
2023/05/09 07:37:45;;;;;;;5.70;2.00;;;;;;;31.15;11.12;101353.39;108202;1257;70290;-67
2023/05/09 07:40:12;;;;;;;7.00;2.50;;;;;;;31.36;10.73;101345.23;108108;1254;72754;-68
2023/05/09 07:42:40;;;;;;;3.50;1.90;;;;;;;31.87;11.02;101348.47;108210;1260;62479;-69
2023/05/09 07:45:09;;;;;;;6.00;2.00;;;;;;;31.66;10.44;101344.42;108120;1254;60950;-68
2023/05/09 07:47:36;;;;;;;3.30;2.00;;;;;;;31.46;10.52;101335.77;108052;1258;75217;-68
2023/05/09 07:50:03;;;;;;;6.40;1.90;;;;;;;31.60;10.71;101339.55;108047;1255;69050;-68
2023/05/09 07:52:29;;;;;;;10.00;2.50;;;;;;;31.44;10.59;101335.85;108053;1254;73916;-67
2023/05/09 07:54:56;;;;;;;5.40;2.30;;;;;;;30.96;10.63;101334.92;108091;1254;62734;-66
2023/05/09 07:57:23;;;;;;;5.70;2.40;;;;;;;30.62;10.54;101335.11;108118;1253;61411;-68
2023/05/09 07:59:50;;;;;;;8.40;2.50;;;;;;;30.23;10.72;101333.89;108168;1255;75153;-68
2023/05/09 08:02:16;;;;;;;5.00;2.10;;;;;;;29.85;11.22;101316.67;108123;1259;72146;-68
2023/05/09 08:04:47;;;;;;;4.10;2.40;;;;;;;30.00;10.76;101326.99;108105;1254;72174;-68
2023/05/09 08:07:14;;;;;;;7.30;2.70;;;;;;;30.43;10.51;101321.98;108074;1251;62339;-68
2023/05/09 08:09:41;;;;;;;7.30;2.50;;;;;;;30.67;10.44;101332.77;108110;1254;60325;-69
2023/05/09 08:12:07;;;;;;;6.60;2.80;;;;;;;31.04;10.16;101338.08;108056;1258;76143;-68
2023/05/09 08:14:34;;;;;;;8.40;2.30;;;;;;;31.24;9.84;101336.70;108037;1254;72398;-67
2023/05/09 08:17:01;;;;;;;3.80;2.10;;;;;;;31.07;10.02;101327.73;108029;1255;74742;-68
2023/05/09 08:19:28;;;;;;;5.00;2.70;;;;;;;30.93;10.14;101324.88;108047;1253;60812;-67
2023/05/09 08:21:55;;;;;;;4.90;2.10;;;;;;;31.45;10.47;101319.06;108080;1253;61077;-67
2023/05/09 08:24:22;;;;;;;9.30;2.40;;;;;;;31.79;9.86;101320.77;108153;1254;75893;-67
2023/05/09 08:26:49;;;;;;;5.40;2.20;;;;;;;31.49;9.92;101319.71;108216;1253;73150;-69
2023/05/09 08:29:16;;;;;;;7.40;2.60;;;;;;;31.20;9.65;101322.58;108112;1254;73832;-68
2023/05/09 08:31:43;;;;;;;4.80;2.00;;;;;;;30.74;9.54;101323.77;108058;1258;61728;-68
2023/05/09 08:34:10;;;;;;;4.80;2.50;;;;;;;30.39;9.59;101320.26;108083;1254;60177;-68
2023/05/09 08:36:37;;;;;;;6.40;2.30;;;;;;;30.11;10.05;101320.63;108081;1254;74890;-66
2023/05/09 08:39:03;;;;;;;4.50;2.30;;;;;;;30.50;10.22;101315.17;108279;1255;71528;-68
2023/05/09 08:41:31;;;;;;;5.30;2.10;;;;;;;31.12;10.15;101314.33;108096;1254;73122;-66
2023/05/09 08:43:58;;;;;;;5.20;2.40;;;;;;;31.40;10.04;101304.71;108022;1253;62738;-68
2023/05/09 08:46:28;;;;;;;10.70;2.40;;;;;;;31.04;10.08;101302.48;108128;1254;62240;-66
2023/05/09 08:48:55;;;;;;;6.40;2.10;;;;;;;30.70;10.20;101302.39;108159;1257;75095;-68
2023/05/09 08:51:22;;;;;;;6.40;2.50;;;;;;;30.84;10.11;101300.75;108134;1254;72377;-67
2023/05/09 08:53:49;;;;;;;6.70;2.40;;;;;;;30.79;10.02;101304.55;108036;1253;74673;-67
2023/05/09 08:56:16;;;;;;;6.60;2.50;;;;;;;31.08;10.06;101304.55;108088;1254;62360;-67
2023/05/09 08:58:43;;;;;;;3.60;2.20;;;;;;;31.27;10.26;101306.41;108040;1257;61417;-68
2023/05/09 09:01:12;;;;;;;4.10;2.20;;;;;;;30.77;9.88;101308.79;107917;1254;76001;-67
2023/05/09 09:03:38;;;;;;;3.40;2.00;;;;;;;30.49;9.87;101303.69;108111;1255;68344;-67
2023/05/09 09:06:06;;;;;;;4.70;2.00;;;;;;;30.48;10.08;101303.61;108012;1254;74538;-66
2023/05/09 09:08:33;;;;;;;6.10;2.20;;;;;;;30.87;9.91;101301.14;108142;1254;62243;-69
2023/05/09 09:11:00;;;;;;;3.20;2.10;;;;;;;31.18;9.86;101300.83;108014;1253;60223;-67
2023/05/09 09:13:26;;;;;;;7.80;2.20;;;;;;;31.23;9.83;101304.26;107937;1254;75901;-68
2023/05/09 09:15:53;;;;;;;6.60;2.20;;;;;;;31.33;9.41;101298.75;108081;1254;70352;-67
2023/05/09 09:18:27;;;;;;;3.40;2.00;;;;;;;31.65;9.43;101289.10;108043;1254;72343;-67
2023/05/09 09:20:59;;;;;;;4.00;1.90;;;;;;;32.26;9.11;101278.81;108148;1255;62414;-68
2023/05/09 09:23:26;;;;;;;8.50;2.30;;;;;;;32.61;8.99;101276.94;108128;1254;60383;-67
2023/05/09 09:26:05;;;;;;;2.90;1.70;;;;;;;32.59;9.11;101270.77;108092;1259;75695;-68
2023/05/09 09:28:32;;;;;;;3.10;1.90;;;;;;;32.20;9.28;101272.75;108159;1254;72070;-66
2023/05/09 09:30:59;;;;;;;4.80;2.40;;;;;;;32.02;9.55;101277.62;108138;1254;71440;-68
2023/05/09 09:33:27;;;;;;;6.50;2.20;;;;;;;31.91;9.59;101278.50;108076;1254;61458;-67
2023/05/09 09:35:55;;;;;;;4.20;2.30;;;;;;;31.47;9.58;101283.83;108063;1253;60355;-68
2023/05/09 09:38:22;;;;;;;8.10;2.70;;;;;;;31.01;9.69;101287.61;108113;1253;74064;-66
2023/05/09 09:40:56;;;;;;;5.10;2.00;;;;;;;30.61;10.02;101286.99;108146;1254;71977;-67
2023/05/09 09:43:30;;;;;;;4.60;2.50;;;;;;;30.26;10.10;101281.69;108131;1254;72336;-67
2023/05/09 09:46:04;;;;;;;4.50;2.40;;;;;;;29.95;10.40;101285.06;108159;1254;60585;-68
2023/05/09 09:48:32;;;;;;;5.80;2.30;;;;;;;29.99;10.34;101281.77;108174;1253;60720;-67
2023/05/09 09:51:10;;;;;;;3.80;2.00;;;;;;;29.93;10.41;101281.08;108052;1254;76150;-67
2023/05/09 09:53:40;;;;;;;7.00;2.50;;;;;;;29.73;10.57;101280.42;108200;1256;72236;-67
2023/05/09 09:56:08;;;;;;;4.20;2.40;;;;;;;30.03;10.32;101277.54;108175;1254;74040;-67
2023/05/09 09:58:35;;;;;;;3.10;2.00;;;;;;;29.97;10.44;101274.18;108122;1252;60456;-68
2023/05/09 10:01:06;;;;;;;2.60;2.00;;;;;;;29.86;10.61;101275.29;108165;1254;61155;-68
2023/05/09 10:03:40;;;;;;;6.00;2.10;;;;;;;30.09;10.53;101273.31;108141;1253;72663;-67
2023/05/09 10:06:11;;;;;;;9.00;2.10;;;;;;;30.68;10.42;101273.64;108060;1254;69491;-68
2023/05/09 10:08:38;;;;;;;;;;;;;;;30.95;10.09;101280.41;108078;1253;75077;-69
2023/05/09 10:11:06;;;;;;;3.70;2.10;;;;;;;30.41;10.05;101282.73;108072;1253;60348;-68
2023/05/09 10:13:33;;;;;;;3.40;1.90;;;;;;;29.57;10.40;101280.55;108175;1253;60313;-69
2023/05/09 10:16:00;;;;;;;3.60;2.20;;;;;;;29.69;10.32;101278.29;108107;1254;74748;-67
2023/05/09 10:18:28;;;;;;;3.30;2.10;;;;;;;29.84;10.51;101285.30;108066;1253;72350;-67
2023/05/09 10:20:55;;;;;;;6.30;2.00;;;;;;;29.81;10.97;101279.80;108126;1254;74587;-68
2023/05/09 10:23:23;;;;;;;6.00;2.00;;;;;;;29.78;10.55;101277.21;108106;1257;61649;-67
2023/05/09 10:26:02;;;;;;;11.40;2.70;;;;;;;29.78;10.83;101272.70;108048;1253;60280;-69
2023/05/09 10:28:31;;;;;;;3.70;2.30;;;;;;;29.50;10.75;101271.45;108103;1257;75902;-65
2023/05/09 10:31:06;;;;;;;7.40;2.20;;;;;;;29.82;10.86;101273.46;108190;1252;71992;-65
2023/05/09 10:33:45;;;;;;;7.80;2.30;;;;;;;30.53;10.55;101272.86;108060;1254;73820;-64
2023/05/09 10:36:12;;;;;;;4.10;1.80;;;;;;;30.73;10.10;101267.33;108083;1253;60818;-65
2023/05/09 10:38:38;;;;;;;3.60;2.20;;;;;;;30.21;10.28;101266.48;108102;1253;60206;-68
2023/05/09 10:41:05;;;;;;;4.40;1.80;;;;;;;30.43;10.32;101261.80;108181;1251;75853;-69
2023/05/09 10:43:32;;;;;;;3.30;2.40;;;;;;;30.96;10.45;101261.08;108123;1254;71726;-67
2023/05/09 10:46:05;;;;;;;2.90;2.00;;;;;;;31.35;10.19;101263.06;108155;1254;74969;-67
2023/05/09 10:48:31;;;;;;;5.30;2.40;;;;;;;31.76;9.96;101258.64;108124;1254;62230;-67
2023/05/09 10:51:02;;;;;;;8.10;2.40;;;;;;;32.29;10.07;101254.63;108269;1254;62026;-67
2023/05/09 10:53:42;;;;;;;5.10;2.10;;;;;;;31.87;9.80;101261.13;108084;1254;74033;-67
2023/05/09 10:56:34;;;;;;;15.10;2.40;;;;;;;31.30;10.16;101259.25;108158;1254;72520;-68
2023/05/09 10:59:01;;;;;;;5.00;2.30;;;;;;;30.88;10.57;101258.11;108113;1254;73115;-66
2023/05/09 11:01:35;;;;;;;4.00;2.00;;;;;;;31.37;10.33;101250.33;108186;1253;61286;-67
2023/05/09 11:04:10;;;;;;;23.80;3.00;;;;;;;31.51;10.53;101250.55;108144;1252;60411;-67
2023/05/09 11:06:45;;;;;;;6.30;2.30;;;;;;;31.53;10.48;101248.08;108184;1252;76135;-67
2023/05/09 11:09:32;;;;;;;6.00;2.20;;;;;;;31.84;10.27;101256.70;108090;1253;69980;-68
2023/05/09 11:12:07;;;;;;;3.80;2.30;;;;;;;31.17;10.10;101256.62;108057;1254;72863;-66
2023/05/09 11:14:47;;;;;;;5.40;2.10;;;;;;;30.40;10.77;101252.60;108051;1253;60325;-66
2023/05/09 11:17:20;;;;;;;6.30;2.00;;;;;;;30.55;10.43;101244.30;108078;1254;61262;-67
2023/05/09 11:19:50;;;;;;;7.50;1.80;;;;;;;30.64;10.57;101239.60;108069;1254;74729;-66
2023/05/09 11:22:27;;;;;;;6.50;2.40;;;;;;;30.29;10.49;101233.65;108065;1253;72511;-68
2023/05/09 11:25:04;;;;;;;4.40;1.90;;;;;;;30.02;10.46;101230.27;108118;1254;74930;-68